EGGP

Liverpool John Lennon Airport

Liverpool, United Kingdom
METAR EGGP 151750Z 14020G30KT 8000 RA OVC009 03/01 Q0994
Observed Flight Rules
Dec-15 @ 17:50 UTC (31 minutes ago) Instrument Flight Rules
Wind Visibility Clouds Conditions
140° at 20 knots
 Gusting to 30 knots
7,998 meters
  • Overcast at 900' AGL
  • Rain
Temperatures Readings
Current 3°C / 37°F
Dewpoint 1°C / 34°F
Humidity 87%
Altimeter 29.35" Hg
Pressure 994 hPa
Elevation 26
METAR EGGP 151750Z 14020G30KT 8000 RA OVC009 03/01 Q0994
Observed Flight Rules
Dec-15 @ 17:50 UTC
(31 minutes ago)
IFR
Wind Visibility
140° at 20 knots
 Gusting to 30 knots
7,998 meters
Clouds
  • Overcast at 900' AGL
Conditions
  • Rain
Temperature Dewpoint
3°C / 37°F 1°C / 34°F
Humidity Altimeter Pressure
87% 29.35" Hg 994 hPa